createdAt,value
2023-02-06T00:02:45.956Z,49.50
2023-02-06T00:05:58.060Z,49.66
2023-02-06T00:09:03.309Z,55.41
2023-02-06T00:12:08.620Z,57.56
2023-02-06T00:15:14.119Z,57.87
2023-02-06T00:18:19.425Z,58.01
2023-02-06T00:21:25.947Z,58.45
2023-02-06T00:24:31.410Z,58.13
2023-02-06T00:27:36.756Z,57.07
2023-02-06T00:30:42.119Z,58.13
2023-02-06T00:33:47.863Z,57.91
2023-02-06T00:36:53.093Z,57.84
2023-02-06T00:39:58.376Z,57.93
2023-02-06T00:43:03.716Z,58.11
2023-02-06T00:46:09.190Z,59.27
2023-02-06T00:49:17.386Z,61.72
2023-02-06T00:52:22.684Z,71.75
2023-02-06T00:55:27.928Z,75.32
2023-02-06T00:58:33.511Z,69.47
2023-02-06T01:01:38.901Z,65.67
2023-02-06T01:04:44.207Z,62.69
2023-02-06T01:07:49.438Z,59.75
2023-02-06T01:10:54.671Z,55.78
2023-02-06T01:14:01.522Z,57.40
2023-02-06T01:17:06.882Z,59.45
2023-02-06T01:20:13.755Z,60.97
2023-02-06T01:23:19.000Z,61.60
2023-02-06T01:26:26.845Z,61.14
2023-02-06T01:29:32.370Z,61.96
2023-02-06T01:32:39.018Z,61.76
2023-02-06T01:35:44.396Z,61.29
2023-02-06T01:38:49.919Z,63.44
2023-02-06T01:41:55.997Z,75.42
2023-02-06T01:45:19.290Z,72.95
2023-02-06T01:48:29.056Z,67.52
2023-02-06T01:51:34.382Z,63.63
2023-02-06T01:54:39.696Z,60.35
2023-02-06T01:57:47.406Z,56.83
2023-02-06T02:00:52.966Z,58.05
2023-02-06T02:04:03.319Z,60.25
2023-02-06T02:07:12.914Z,61.45
2023-02-06T02:10:18.648Z,61.37
2023-02-06T02:13:24.162Z,61.79
2023-02-06T02:16:36.741Z,61.34
2023-02-06T02:20:14.874Z,61.78
2023-02-06T02:23:26.961Z,61.39
2023-02-06T02:26:45.910Z,61.15
2023-02-06T02:30:12.430Z,63.76
2023-02-06T02:33:27.520Z,74.23
2023-02-06T02:36:36.184Z,72.81
2023-02-06T02:39:45.016Z,68.26
2023-02-06T02:42:55.292Z,64.63
2023-02-06T02:46:03.788Z,61.84
2023-02-06T02:49:12.074Z,59.35
2023-02-06T02:52:17.359Z,55.72
2023-02-06T02:55:23.923Z,57.28
2023-02-06T02:58:35.370Z,59.34
2023-02-06T03:01:43.347Z,60.12
2023-02-06T03:04:51.699Z,60.80
2023-02-06T03:08:06.467Z,60.90
2023-02-06T03:11:14.609Z,61.33
2023-02-06T03:14:24.450Z,61.40
2023-02-06T03:17:34.886Z,61.34
2023-02-06T03:20:42.472Z,61.13
2023-02-06T03:23:49.865Z,61.00
2023-02-06T03:26:57.838Z,60.82
2023-02-06T03:30:04.141Z,60.83
2023-02-06T03:33:12.033Z,61.62
2023-02-06T03:36:18.472Z,61.75
2023-02-06T03:39:24.157Z,62.47
2023-02-06T03:42:31.081Z,70.81
2023-02-06T03:45:38.541Z,76.83
2023-02-06T03:48:45.818Z,73.89
2023-02-06T03:51:52.904Z,69.20
2023-02-06T03:55:00.361Z,64.05
2023-02-06T03:58:07.987Z,58.56
2023-02-06T04:01:13.776Z,55.28
2023-02-06T04:04:21.259Z,57.50
2023-02-06T04:07:27.568Z,59.21
2023-02-06T04:10:33.331Z,58.89
2023-02-06T04:13:38.690Z,59.19
2023-02-06T04:16:44.023Z,59.17
2023-02-06T04:19:49.414Z,60.27
2023-02-06T04:22:54.784Z,60.80
2023-02-06T04:26:00.282Z,60.97
2023-02-06T04:29:05.617Z,60.74
2023-02-06T04:32:11.130Z,60.59
2023-02-06T04:35:16.541Z,65.16
2023-02-06T04:38:22.048Z,73.65
2023-02-06T04:41:27.495Z,73.92
2023-02-06T04:44:33.891Z,68.80
2023-02-06T04:47:39.298Z,65.06
2023-02-06T04:50:44.639Z,62.02
2023-02-06T04:53:49.934Z,59.27
2023-02-06T04:56:55.179Z,55.79
2023-02-06T05:00:00.500Z,57.21
2023-02-06T05:03:06.177Z,58.81
2023-02-06T05:06:11.707Z,59.36
2023-02-06T05:09:17.102Z,58.82
2023-02-06T05:12:22.420Z,58.80
2023-02-06T05:15:27.970Z,58.00
2023-02-06T05:18:33.263Z,58.08
2023-02-06T05:21:38.663Z,60.24
2023-02-06T05:24:44.028Z,59.44
2023-02-06T05:27:50.757Z,59.22
2023-02-06T05:30:56.614Z,60.03
2023-02-06T05:34:01.939Z,66.93
2023-02-06T05:37:07.453Z,75.66
2023-02-06T05:40:13.766Z,72.71
2023-02-06T05:43:19.195Z,68.48
2023-02-06T05:46:24.759Z,64.32
2023-02-06T05:49:30.234Z,61.41
2023-02-06T05:52:35.468Z,60.18
2023-02-06T05:55:41.011Z,55.39
2023-02-06T05:58:46.454Z,56.29
2023-02-06T06:01:51.945Z,58.12
2023-02-06T06:04:57.509Z,59.65
2023-02-06T06:08:02.971Z,60.19
2023-02-06T06:11:08.654Z,60.47
2023-02-06T06:14:14.104Z,60.73
2023-02-06T06:17:19.462Z,61.02
2023-02-06T06:20:24.969Z,60.70
2023-02-06T06:23:30.403Z,59.81
2023-02-06T06:26:35.816Z,59.74
2023-02-06T06:29:41.394Z,60.11
2023-02-06T06:32:46.678Z,60.17
2023-02-06T06:35:51.888Z,60.81
2023-02-06T06:38:57.237Z,66.74
2023-02-06T06:42:04.496Z,75.98
2023-02-06T06:45:10.786Z,73.67
2023-02-06T06:48:16.148Z,68.95
2023-02-06T06:51:21.746Z,65.20
2023-02-06T06:54:27.239Z,62.15
2023-02-06T06:57:33.014Z,57.69
2023-02-06T07:00:41.169Z,55.93
2023-02-06T07:03:48.482Z,58.05
2023-02-06T07:06:54.536Z,59.87
2023-02-06T07:10:00.327Z,60.50
2023-02-06T07:13:05.664Z,60.36
2023-02-06T07:16:11.381Z,59.75
2023-02-06T07:19:16.666Z,60.31
2023-02-06T07:22:22.127Z,60.23
2023-02-06T07:25:27.576Z,60.15
2023-02-06T07:28:33.535Z,59.93
2023-02-06T07:31:38.900Z,59.76
2023-02-06T07:34:44.412Z,59.74
2023-02-06T07:37:49.796Z,59.86
2023-02-06T07:40:55.174Z,60.20
2023-02-06T07:44:00.525Z,60.49
2023-02-06T07:47:05.941Z,60.97
2023-02-06T07:50:12.148Z,61.62
2023-02-06T07:53:17.749Z,61.97
2023-02-06T07:56:25.369Z,69.34
2023-02-06T07:59:30.678Z,76.82
2023-02-06T08:02:36.112Z,72.95
2023-02-06T08:05:41.690Z,67.07
2023-02-06T08:08:47.395Z,62.71
2023-02-06T08:11:52.720Z,58.65
2023-02-06T08:14:58.223Z,55.04
2023-02-06T08:18:03.574Z,56.15
2023-02-06T08:21:14.379Z,56.18
2023-02-06T08:24:19.986Z,56.32
2023-02-06T08:27:25.268Z,63.59
2023-02-06T08:30:32.437Z,66.09
2023-02-06T08:33:37.915Z,62.39
2023-02-06T08:36:43.823Z,56.29
2023-02-06T08:39:49.318Z,53.16
2023-02-06T08:42:54.661Z,53.67
2023-02-06T08:46:00.260Z,55.34
2023-02-06T08:49:06.663Z,55.63
2023-02-06T08:52:12.085Z,57.92
2023-02-06T08:55:17.686Z,56.60
2023-02-06T08:58:23.094Z,57.68
2023-02-06T09:01:28.779Z,66.85
2023-02-06T09:04:35.441Z,69.33
2023-02-06T09:07:40.866Z,65.33
2023-02-06T09:10:46.251Z,61.21
2023-02-06T09:13:52.074Z,54.04
2023-02-06T09:16:58.303Z,52.26
2023-02-06T09:20:05.335Z,53.48
2023-02-06T09:23:10.563Z,54.42
2023-02-06T09:26:16.989Z,55.49
2023-02-06T09:29:22.472Z,56.34
2023-02-06T09:32:27.814Z,56.17
2023-02-06T09:35:33.165Z,57.29
2023-02-06T09:38:39.673Z,57.64
2023-02-06T09:41:46.500Z,57.57
2023-02-06T09:44:54.454Z,57.71
2023-02-06T09:48:01.706Z,59.80
2023-02-06T09:51:11.200Z,72.13
2023-02-06T09:54:24.012Z,67.39
2023-02-06T09:57:36.092Z,62.39
2023-02-06T10:00:46.531Z,53.07
2023-02-06T10:03:56.611Z,51.77
2023-02-06T10:07:09.077Z,54.14
2023-02-06T10:10:16.535Z,64.77
2023-02-06T10:13:23.686Z,58.50
2023-02-06T10:16:35.694Z,58.04
2023-02-06T10:19:44.217Z,61.12
2023-02-06T10:22:52.376Z,60.80
2023-02-06T10:26:02.296Z,60.28
2023-02-06T10:29:12.786Z,62.47
2023-02-06T10:32:28.872Z,64.08
2023-02-06T10:35:39.993Z,58.98
2023-02-06T10:38:53.110Z,54.98
2023-02-06T10:42:05.697Z,57.10
2023-02-06T10:45:20.110Z,58.30
2023-02-06T10:48:33.003Z,60.10
2023-02-06T10:51:42.428Z,62.85
2023-02-06T10:54:50.678Z,58.78
2023-02-06T10:58:01.041Z,57.70
2023-02-06T11:01:23.738Z,59.25
2023-02-06T11:04:35.776Z,59.44
2023-02-06T11:07:43.140Z,62.12
2023-02-06T11:10:48.665Z,61.86
2023-02-06T11:13:56.471Z,57.56
2023-02-06T11:17:02.145Z,58.15
2023-02-06T11:20:17.011Z,59.34
2023-02-06T11:23:23.365Z,60.26
2023-02-06T11:26:31.741Z,60.38
2023-02-06T11:29:39.928Z,59.87
2023-02-06T11:32:59.009Z,62.13
2023-02-06T11:36:22.725Z,56.51
2023-02-06T11:39:30.329Z,53.70
2023-02-06T11:42:38.027Z,56.99
2023-02-06T11:45:43.314Z,59.89
2023-02-06T11:48:49.022Z,60.89
2023-02-06T11:51:55.184Z,60.42
2023-02-06T11:55:02.936Z,57.92
2023-02-06T11:58:20.770Z,63.17
2023-02-06T12:01:26.172Z,63.40
2023-02-06T12:04:34.074Z,53.96
2023-02-06T12:07:40.851Z,53.71
2023-02-06T12:10:52.668Z,56.67
2023-02-06T12:14:00.515Z,57.95
2023-02-06T12:17:10.806Z,58.11
2023-02-06T12:20:19.811Z,58.35
2023-02-06T12:23:30.062Z,59.29
2023-02-06T12:26:38.144Z,59.73
2023-02-06T12:29:45.535Z,61.05
2023-02-06T12:32:53.816Z,56.61
2023-02-06T12:36:06.005Z,57.34
2023-02-06T12:39:19.679Z,59.04
2023-02-06T12:42:37.394Z,61.79
2023-02-06T12:45:47.582Z,66.37
2023-02-06T12:48:54.856Z,64.67
2023-02-06T12:52:04.722Z,57.50
2023-02-06T12:55:14.716Z,52.95
2023-02-06T12:58:29.511Z,56.69
2023-02-06T13:01:58.252Z,59.33
2023-02-06T13:05:05.903Z,59.11
2023-02-06T13:08:13.634Z,57.90
2023-02-06T13:11:28.788Z,59.86
2023-02-06T13:14:35.946Z,60.50
2023-02-06T13:17:42.606Z,57.51
2023-02-06T13:21:01.550Z,56.34
2023-02-06T13:24:17.550Z,58.78
2023-02-06T13:27:25.964Z,57.45
2023-02-06T13:30:51.121Z,57.63
2023-02-06T13:33:58.710Z,57.72
2023-02-06T13:37:17.586Z,58.39
2023-02-06T13:40:30.297Z,59.44
2023-02-06T13:43:36.611Z,60.31
2023-02-06T13:46:58.533Z,60.04
2023-02-06T13:50:17.734Z,60.77
2023-02-06T13:53:31.848Z,61.10
2023-02-06T13:56:42.861Z,60.78
2023-02-06T13:59:51.289Z,59.57
2023-02-06T14:02:58.012Z,56.99
2023-02-06T14:06:08.190Z,57.86
2023-02-06T14:09:30.463Z,56.88
2023-02-06T14:12:44.554Z,58.23
2023-02-06T14:15:56.388Z,59.11
2023-02-06T14:19:04.438Z,58.07
2023-02-06T14:22:17.916Z,57.37
2023-02-06T14:25:31.929Z,58.33
2023-02-06T14:28:44.135Z,57.56
2023-02-06T14:31:59.382Z,57.84
2023-02-06T14:35:16.800Z,56.67
2023-02-06T14:38:38.524Z,57.89
2023-02-06T14:41:44.050Z,59.01
2023-02-06T14:44:58.035Z,59.47
2023-02-06T14:48:04.490Z,59.28
2023-02-06T14:51:19.554Z,58.82
2023-02-06T14:54:33.000Z,59.94
2023-02-06T14:57:39.289Z,60.46
2023-02-06T15:00:44.639Z,61.03
2023-02-06T15:03:52.545Z,61.15
2023-02-06T15:06:59.068Z,61.19
2023-02-06T15:10:06.913Z,60.15
2023-02-06T15:13:21.190Z,60.46
2023-02-06T15:16:26.565Z,60.97
2023-02-06T15:19:32.602Z,61.02
2023-02-06T15:22:37.930Z,61.07
2023-02-06T15:25:49.183Z,61.13
2023-02-06T15:28:59.003Z,61.12
2023-02-06T15:32:06.250Z,61.04
2023-02-06T15:35:21.121Z,60.99
2023-02-06T15:38:28.288Z,61.35
2023-02-06T15:41:36.295Z,61.45
2023-02-06T15:44:42.042Z,61.76
2023-02-06T15:47:47.800Z,61.98
2023-02-06T15:51:01.341Z,61.58
2023-02-06T15:54:11.012Z,61.70
2023-02-06T15:57:25.433Z,61.61
2023-02-06T16:00:32.704Z,61.73
2023-02-06T16:03:42.195Z,62.38
2023-02-06T16:06:48.117Z,69.23
2023-02-06T16:09:54.528Z,74.60
2023-02-06T16:13:01.887Z,70.36
2023-02-06T16:16:21.638Z,65.64
2023-02-06T16:19:38.239Z,59.64
2023-02-06T16:22:43.801Z,54.30
2023-02-06T16:25:50.403Z,54.51
2023-02-06T16:28:59.052Z,55.38
2023-02-06T16:32:13.971Z,56.12
2023-02-06T16:35:19.592Z,56.64
2023-02-06T16:38:25.152Z,56.78
2023-02-06T16:41:32.297Z,57.12
2023-02-06T16:44:44.746Z,57.27
2023-02-06T16:47:51.302Z,57.49
2023-02-06T16:50:56.547Z,58.85
2023-02-06T16:54:03.573Z,58.71
2023-02-06T16:57:13.225Z,58.69
2023-02-06T17:00:20.320Z,60.44
2023-02-06T17:03:25.571Z,61.16
2023-02-06T17:06:34.385Z,60.74
2023-02-06T17:09:39.688Z,61.23
2023-02-06T17:12:45.222Z,61.37
2023-02-06T17:15:53.119Z,62.18
2023-02-06T17:18:58.839Z,67.53
2023-02-06T17:22:04.298Z,76.23
2023-02-06T17:25:09.915Z,74.13
2023-02-06T17:28:16.699Z,69.89
2023-02-06T17:31:23.803Z,65.82
2023-02-06T17:34:30.347Z,62.07
2023-02-06T17:37:36.411Z,58.07
2023-02-06T17:40:41.959Z,55.13
2023-02-06T17:43:50.429Z,57.21
2023-02-06T17:46:56.004Z,57.85
2023-02-06T17:50:01.712Z,57.44
2023-02-06T17:53:08.803Z,57.53
2023-02-06T17:56:16.936Z,57.91
2023-02-06T17:59:22.341Z,57.93
2023-02-06T18:02:27.746Z,58.51
2023-02-06T18:05:33.416Z,64.20
2023-02-06T18:08:38.935Z,73.74
2023-02-06T18:11:44.281Z,73.19
2023-02-06T18:14:50.113Z,67.40
2023-02-06T18:17:56.353Z,63.58
2023-02-06T18:21:03.181Z,60.59
2023-02-06T18:24:09.157Z,56.21
2023-02-06T18:27:14.957Z,56.97
2023-02-06T18:30:20.369Z,58.16
2023-02-06T18:33:25.567Z,58.58
2023-02-06T18:36:31.262Z,58.82
2023-02-06T18:39:38.259Z,58.66
2023-02-06T18:42:53.959Z,58.57
2023-02-06T18:45:59.254Z,57.99
2023-02-06T18:49:04.498Z,58.60
2023-02-06T18:52:10.118Z,60.07
2023-02-06T18:55:15.880Z,62.05
2023-02-06T18:58:21.314Z,69.90
2023-02-06T19:01:27.222Z,75.32
2023-02-06T19:04:32.890Z,69.60
2023-02-06T19:07:38.769Z,64.53
2023-02-06T19:10:44.108Z,62.40
2023-02-06T19:13:49.620Z,59.15
2023-02-06T19:16:55.116Z,55.33
2023-02-06T19:20:00.607Z,55.64
2023-02-06T19:23:06.082Z,56.53
2023-02-06T19:26:13.994Z,57.77
2023-02-06T19:29:33.619Z,57.74
2023-02-06T19:32:42.767Z,58.18
2023-02-06T19:35:48.130Z,58.10
2023-02-06T19:38:55.421Z,58.42
2023-02-06T19:42:00.888Z,59.39
2023-02-06T19:45:06.999Z,63.76
2023-02-06T19:48:13.930Z,72.38
2023-02-06T19:51:20.612Z,74.37
2023-02-06T19:54:25.860Z,70.18
2023-02-06T19:57:31.321Z,65.68
2023-02-06T20:00:37.950Z,62.74
2023-02-06T20:03:44.366Z,57.28
2023-02-06T20:06:51.239Z,56.39
2023-02-06T20:09:56.656Z,58.16
2023-02-06T20:13:02.057Z,59.12
2023-02-06T20:16:14.329Z,60.20
2023-02-06T20:19:20.545Z,60.42
2023-02-06T20:22:26.543Z,59.78
2023-02-06T20:25:32.088Z,59.16
2023-02-06T20:28:37.471Z,59.79
2023-02-06T20:31:42.865Z,60.21
2023-02-06T20:34:51.906Z,67.94
2023-02-06T20:37:57.384Z,72.27
2023-02-06T20:41:02.960Z,68.89
2023-02-06T20:44:09.127Z,66.87
2023-02-06T20:47:14.634Z,63.06
2023-02-06T20:50:20.102Z,59.60
2023-02-06T20:53:25.934Z,57.08
2023-02-06T20:56:31.450Z,55.82
2023-02-06T20:59:36.988Z,54.21
2023-02-06T21:02:42.323Z,52.54
2023-02-06T21:05:55.125Z,51.42
2023-02-06T21:09:01.258Z,51.29
2023-02-06T21:12:06.769Z,51.64
2023-02-06T21:15:12.790Z,51.16
2023-02-06T21:18:18.261Z,50.25
2023-02-06T21:21:25.675Z,49.26
2023-02-06T21:24:31.117Z,49.52
2023-02-06T21:27:37.451Z,50.28
2023-02-06T21:30:42.868Z,50.86
2023-02-06T21:33:48.872Z,51.34
2023-02-06T21:36:54.680Z,51.63
2023-02-06T21:40:00.214Z,50.40
2023-02-06T21:43:05.575Z,49.52
2023-02-06T21:46:11.849Z,49.21
2023-02-06T21:49:17.224Z,49.61
2023-02-06T21:52:22.546Z,49.68
2023-02-06T21:55:28.140Z,49.95
2023-02-06T21:58:33.476Z,49.51
2023-02-06T22:01:40.915Z,49.54
2023-02-06T22:04:46.453Z,48.06
2023-02-06T22:07:51.913Z,46.62
2023-02-06T22:10:57.238Z,47.41
2023-02-06T22:14:03.999Z,48.63
2023-02-06T22:17:09.544Z,48.31
2023-02-06T22:20:16.464Z,48.09
2023-02-06T22:23:21.848Z,47.70
2023-02-06T22:26:27.843Z,46.53
2023-02-06T22:29:33.076Z,46.02
2023-02-06T22:32:39.182Z,47.03
2023-02-06T22:35:45.373Z,47.55
2023-02-06T22:38:54.078Z,47.59
2023-02-06T22:41:59.457Z,46.42
2023-02-06T22:45:04.993Z,45.62
2023-02-06T22:48:10.132Z,44.94
2023-02-06T22:51:15.441Z,44.61
2023-02-06T22:54:20.935Z,44.52
2023-02-06T22:57:27.720Z,44.58
2023-02-06T23:00:33.064Z,44.63
2023-02-06T23:03:38.474Z,44.49
2023-02-06T23:06:43.888Z,44.47
2023-02-06T23:09:49.233Z,45.37
2023-02-06T23:12:54.524Z,45.64
2023-02-06T23:16:00.181Z,46.36
2023-02-06T23:19:06.867Z,46.82
2023-02-06T23:22:12.885Z,47.24
2023-02-06T23:25:18.237Z,47.88
2023-02-06T23:28:23.902Z,48.59
2023-02-06T23:31:29.573Z,49.01
2023-02-06T23:34:34.905Z,49.23
2023-02-06T23:37:40.438Z,49.40
2023-02-06T23:40:45.941Z,48.65
2023-02-06T23:43:52.608Z,46.90
2023-02-06T23:46:57.964Z,46.22
2023-02-06T23:50:03.376Z,46.02
2023-02-06T23:53:08.725Z,46.89
2023-02-06T23:56:14.691Z,47.39
2023-02-06T23:59:20.089Z,47.17
